Time,TemperatureF,DewpointF,PressureIn,WindDirection,WindDirectionDegrees,WindSpeedMPH,WindSpeedGustMPH,Humidity,HourlyPrecipIn,Conditions,Clouds,dailyrainin,SolarRadiationWatts/m^2,SoftwareType,DateUTC
2013-10-11 00:01:00,48.9,47.2,30.17,NNW,335,0.0,0.0,94,0.00,,,0.00,0,Wunderground v.1.15,2013-10-11 04:01:00,
2013-10-11 00:10:00,48.9,47.2,30.17,NNW,335,0.0,0.0,94,0.00,,,0.00,0,Wunderground v.1.15,2013-10-11 04:10:00,
2013-10-11 00:15:00,48.9,47.2,30.17,NNW,335,0.0,0.0,94,0.00,,,0.00,0,Wunderground v.1.15,2013-10-11 04:15:00,
2013-10-11 00:20:00,48.8,47.2,30.17,NNW,335,0.0,0.0,94,0.00,,,0.00,0,Wunderground v.1.15,2013-10-11 04:20:00,
2013-10-11 00:25:00,48.7,47.1,30.17,NNW,335,0.0,0.0,94,0.00,,,0.00,0,Wunderground v.1.15,2013-10-11 04:25:00,
2013-10-11 00:30:00,48.6,47.0,30.17,NNW,335,0.0,0.0,94,0.00,,,0.00,0,Wunderground v.1.15,2013-10-11 04:30:00,
2013-10-11 00:40:00,48.4,46.8,30.16,NNW,335,0.0,0.0,94,0.00,,,0.00,0,Wunderground v.1.15,2013-10-11 04:40:00,
2013-10-11 00:45:00,48.3,46.7,30.16,NNW,335,0.0,0.0,94,0.00,,,0.00,0,Wunderground v.1.15,2013-10-11 04:45:00,
2013-10-11 00:55:00,48.0,46.4,30.16,NNW,335,0.0,0.0,94,0.00,,,0.00,0,Wunderground v.1.15,2013-10-11 04:55:00,
2013-10-11 01:01:00,47.9,46.3,30.16,NNW,335,0.0,0.0,94,0.00,,,0.00,0,Wunderground v.1.15,2013-10-11 05:01:00,
2013-10-11 01:10:00,47.7,46.1,30.16,NNW,335,0.0,0.0,94,0.00,,,0.00,0,Wunderground v.1.15,2013-10-11 05:10:00,
2013-10-11 01:15:00,47.6,46.0,30.16,NNW,335,0.0,0.0,94,0.00,,,0.00,0,Wunderground v.1.15,2013-10-11 05:15:00,
2013-10-11 01:25:00,47.4,45.8,30.16,NNW,335,0.0,0.0,94,0.00,,,0.00,0,Wunderground v.1.15,2013-10-11 05:25:00,
2013-10-11 01:30:00,47.3,45.7,30.16,NNW,335,0.0,0.0,94,0.00,,,0.00,0,Wunderground v.1.15,2013-10-11 05:30:00,
2013-10-11 01:35:00,47.2,45.6,30.16,NNW,335,0.0,0.0,94,0.00,,,0.00,0,Wunderground v.1.15,2013-10-11 05:35:00,
2013-10-11 01:45:00,47.1,45.5,30.15,NNW,335,0.0,0.0,94,0.00,,,0.00,0,Wunderground v.1.15,2013-10-11 05:45:00,
2013-10-11 01:55:00,46.9,45.3,30.15,NNW,335,0.0,0.0,94,0.00,,,0.00,0,Wunderground v.1.15,2013-10-11 05:55:00,
2013-10-11 02:01:00,46.8,45.2,30.15,NNW,335,0.0,0.0,94,0.00,,,0.00,0,Wunderground v.1.15,2013-10-11 06:01:00,
2013-10-11 02:10:00,46.6,45.0,30.14,NNW,335,0.0,0.0,94,0.00,,,0.00,0,Wunderground v.1.15,2013-10-11 06:10:00,
2013-10-11 02:20:00,46.3,44.7,30.14,NNW,335,0.0,0.0,94,0.00,,,0.00,0,Wunderground v.1.15,2013-10-11 06:20:00,
2013-10-11 02:26:00,46.1,44.5,30.13,NNW,335,0.0,0.0,94,0.00,,,0.00,0,Wunderground v.1.15,2013-10-11 06:26:00,
2013-10-11 02:35:00,45.7,43.8,30.13,NNW,335,0.0,0.0,93,0.00,,,0.00,0,Wunderground v.1.15,2013-10-11 06:35:00,
2013-10-11 02:45:00,45.3,43.7,30.13,NNW,335,0.0,0.0,94,0.00,,,0.00,0,Wunderground v.1.15,2013-10-11 06:45:00,
2013-10-11 02:51:00,45.2,43.3,30.13,NNW,335,0.0,0.0,93,0.00,,,0.00,0,Wunderground v.1.15,2013-10-11 06:51:00,
2013-10-11 03:01:00,45.0,43.4,30.13,NNW,335,0.0,0.0,94,0.00,,,0.00,0,Wunderground v.1.15,2013-10-11 07:01:00,
2013-10-11 03:10:00,44.9,43.3,30.13,NNW,335,0.0,0.0,94,0.00,,,0.00,0,Wunderground v.1.15,2013-10-11 07:10:00,
2013-10-11 03:16:00,44.9,43.3,30.14,NNW,335,0.0,0.0,94,0.00,,,0.00,0,Wunderground v.1.15,2013-10-11 07:16:00,
2013-10-11 03:25:00,44.7,43.1,30.14,NNW,335,0.0,0.0,94,0.00,,,0.00,0,Wunderground v.1.15,2013-10-11 07:25:00,
2013-10-11 03:35:00,44.6,43.0,30.13,NNW,335,0.0,0.0,94,0.00,,,0.00,0,Wunderground v.1.15,2013-10-11 07:35:00,
2013-10-11 03:41:00,44.6,43.0,30.13,NNW,335,0.0,0.0,94,0.00,,,0.00,0,Wunderground v.1.15,2013-10-11 07:41:00,
2013-10-11 03:50:00,44.6,43.0,30.13,NNW,335,0.0,0.0,94,0.00,,,0.00,0,Wunderground v.1.15,2013-10-11 07:50:00,
2013-10-11 04:01:00,44.6,43.0,30.13,NNW,335,0.0,0.0,94,0.00,,,0.00,0,Wunderground v.1.15,2013-10-11 08:01:00,
2013-10-11 04:10:00,44.6,43.0,30.13,NNW,335,0.0,0.0,94,0.00,,,0.00,0,Wunderground v.1.15,2013-10-11 08:10:00,
2013-10-11 04:20:00,44.6,43.3,30.13,NNW,335,0.0,0.0,95,0.00,,,0.00,0,Wunderground v.1.15,2013-10-11 08:20:00,
2013-10-11 04:26:00,44.6,43.3,30.14,NNW,335,0.0,0.0,95,0.00,,,0.00,0,Wunderground v.1.15,2013-10-11 08:26:00,
2013-10-11 04:35:00,44.6,43.3,30.14,NNW,335,0.0,0.0,95,0.00,,,0.00,0,Wunderground v.1.15,2013-10-11 08:35:00,
2013-10-11 04:45:00,44.5,43.2,30.14,NNW,335,0.0,0.0,95,0.00,,,0.00,0,Wunderground v.1.15,2013-10-11 08:45:00,
2013-10-11 04:55:00,44.4,42.8,30.14,NNW,335,0.0,0.0,94,0.00,,,0.00,0,Wunderground v.1.15,2013-10-11 08:55:00,
2013-10-11 05:01:00,44.2,42.6,30.14,NNW,335,0.0,0.0,94,0.00,,,0.00,0,Wunderground v.1.15,2013-10-11 09:01:00,
2013-10-11 05:10:00,44.1,42.8,30.13,NNW,335,0.0,0.0,95,0.00,,,0.00,0,Wunderground v.1.15,2013-10-11 09:10:00,
2013-10-11 05:16:00,44.0,42.7,30.14,NNW,335,0.0,0.0,95,0.00,,,0.00,0,Wunderground v.1.15,2013-10-11 09:16:00,
2013-10-11 05:25:00,44.0,42.7,30.13,NNW,335,0.0,0.0,95,0.00,,,0.00,0,Wunderground v.1.15,2013-10-11 09:25:00,
2013-10-11 05:35:00,44.0,42.7,30.14,NNW,335,0.0,0.0,95,0.00,,,0.00,0,Wunderground v.1.15,2013-10-11 09:35:00,
2013-10-11 05:41:00,44.0,42.7,30.14,NNW,335,0.0,0.0,95,0.00,,,0.00,0,Wunderground v.1.15,2013-10-11 09:41:00,
2013-10-11 05:50:00,44.0,42.7,30.14,NNW,335,0.0,0.0,95,0.00,,,0.00,0,Wunderground v.1.15,2013-10-11 09:50:00,
2013-10-11 06:01:00,44.1,42.8,30.14,NNW,335,0.0,0.0,95,0.00,,,0.00,0,Wunderground v.1.15,2013-10-11 10:01:00,
2013-10-11 06:10:00,44.0,42.7,30.14,NNW,335,0.0,0.0,95,0.00,,,0.00,0,Wunderground v.1.15,2013-10-11 10:10:00,
2013-10-11 06:20:00,44.0,42.7,30.14,NNW,335,0.0,0.0,95,0.00,,,0.00,0,Wunderground v.1.15,2013-10-11 10:20:00,
2013-10-11 06:26:00,44.0,42.7,30.14,NNW,335,0.0,0.0,95,0.00,,,0.00,0,Wunderground v.1.15,2013-10-11 10:26:00,
2013-10-11 06:35:00,44.0,42.7,30.14,NNW,335,0.0,0.0,95,0.00,,,0.00,0,Wunderground v.1.15,2013-10-11 10:35:00,
2013-10-11 06:45:00,44.0,42.7,30.15,NNW,335,0.0,0.0,95,0.00,,,0.00,0,Wunderground v.1.15,2013-10-11 10:45:00,
2013-10-11 06:51:00,44.0,42.7,30.15,NNW,335,0.0,0.0,95,0.00,,,0.00,0,Wunderground v.1.15,2013-10-11 10:51:00,
2013-10-11 07:01:00,43.9,42.6,30.14,NNW,335,0.0,0.0,95,0.00,,,0.00,0,Wunderground v.1.15,2013-10-11 11:01:00,
2013-10-11 07:10:00,43.4,42.1,30.15,NNW,335,0.0,0.0,95,0.00,,,0.00,11,Wunderground v.1.15,2013-10-11 11:10:00,
2013-10-11 07:20:00,43.3,42.0,30.14,NNW,335,0.0,0.0,95,0.00,,,0.00,14,Wunderground v.1.15,2013-10-11 11:20:00,
2013-10-11 07:26:00,43.3,42.0,30.14,NNW,335,0.0,0.0,95,0.00,,,0.00,16,Wunderground v.1.15,2013-10-11 11:26:00,
2013-10-11 07:35:00,43.3,42.0,30.15,NNW,335,0.0,0.0,95,0.00,,,0.00,19,Wunderground v.1.15,2013-10-11 11:35:00,
2013-10-11 07:40:00,43.3,42.0,30.15,NNW,335,0.0,0.0,95,0.00,,,0.00,23,Wunderground v.1.15,2013-10-11 11:40:00,
2013-10-11 07:45:00,43.5,42.2,30.15,NNW,335,0.0,0.0,95,0.00,,,0.00,32,Wunderground v.1.15,2013-10-11 11:45:00,
2013-10-11 07:51:00,43.7,42.4,30.14,NNW,335,0.0,0.0,95,0.00,,,0.00,44,Wunderground v.1.15,2013-10-11 11:51:00,
2013-10-11 07:56:00,43.9,42.6,30.15,NNW,335,0.0,0.0,95,0.00,,,0.00,56,Wunderground v.1.15,2013-10-11 11:56:00,
2013-10-11 08:01:00,44.1,43.0,30.15,NNW,335,0.0,0.0,96,0.00,,,0.00,69,Wunderground v.1.15,2013-10-11 12:01:00,
2013-10-11 08:11:00,44.7,43.6,30.15,NNW,335,0.0,0.0,96,0.00,,,0.00,100,Wunderground v.1.15,2013-10-11 12:11:00,
2013-10-11 08:16:00,45.0,43.9,30.15,NNW,335,0.0,0.0,96,0.00,,,0.00,113,Wunderground v.1.15,2013-10-11 12:16:00,
2013-10-11 08:21:00,46.1,45.0,30.15,NNW,335,0.0,0.0,96,0.00,,,0.00,141,Wunderground v.1.15,2013-10-11 12:21:00,
2013-10-11 08:26:00,47.1,46.0,30.15,NNW,335,0.0,0.0,96,0.00,,,0.00,144,Wunderground v.1.15,2013-10-11 12:26:00,
2013-10-11 08:31:00,47.5,46.4,30.15,NNW,335,0.0,1.0,96,0.00,,,0.00,144,Wunderground v.1.15,2013-10-11 12:31:00,
2013-10-11 08:36:00,47.7,46.6,30.15,NNW,330,1.0,2.0,96,0.00,,,0.00,151,Wunderground v.1.15,2013-10-11 12:36:00,
2013-10-11 08:41:00,47.9,46.8,30.15,NNW,331,1.0,1.0,96,0.00,,,0.00,155,Wunderground v.1.15,2013-10-11 12:41:00,
2013-10-11 08:46:00,48.2,47.1,30.15,NW,311,1.0,3.0,96,0.00,,,0.00,167,Wunderground v.1.15,2013-10-11 12:46:00,
2013-10-11 08:56:00,49.1,48.0,30.14,NW,321,2.0,3.0,96,0.00,,,0.00,199,Wunderground v.1.15,2013-10-11 12:56:00,
2013-10-11 09:02:00,49.6,48.5,30.15,NW,315,2.0,3.0,96,0.00,,,0.00,207,Wunderground v.1.15,2013-10-11 13:02:00,
2013-10-11 09:10:00,50.5,49.4,30.15,NW,315,1.0,1.0,96,0.00,,,0.00,285,Wunderground v.1.15,2013-10-11 13:10:00,
2013-10-11 09:15:00,51.5,50.1,30.15,NW,320,1.0,3.0,95,0.00,,,0.00,497,Wunderground v.1.15,2013-10-11 13:15:00,
2013-10-11 09:20:00,52.4,50.4,30.15,NNW,329,1.0,1.0,93,0.00,,,0.00,573,Wunderground v.1.15,2013-10-11 13:20:00,
2013-10-11 09:25:00,53.5,50.9,30.15,NNW,329,1.0,1.0,91,0.00,,,0.00,564,Wunderground v.1.15,2013-10-11 13:25:00,
2013-10-11 09:31:00,54.3,50.8,30.15,WNW,301,1.0,1.0,88,0.00,,,0.00,568,Wunderground v.1.15,2013-10-11 13:31:00,
2013-10-11 09:36:00,55.4,51.6,30.15,NW,322,1.0,1.0,87,0.00,,,0.00,570,Wunderground v.1.15,2013-10-11 13:36:00,
2013-10-11 09:41:00,56.1,51.7,30.15,NW,310,1.0,1.0,85,0.00,,,0.00,554,Wunderground v.1.15,2013-10-11 13:41:00,
2013-10-11 09:46:00,56.0,50.6,30.15,WSW,247,1.0,1.0,82,0.00,,,0.00,536,Wunderground v.1.15,2013-10-11 13:46:00,
2013-10-11 09:50:00,56.1,50.7,30.15,NE,41,0.0,0.0,82,0.00,,,0.00,526,Wunderground v.1.15,2013-10-11 13:50:00,
2013-10-11 09:56:00,56.7,50.9,30.15,NNW,332,2.0,6.0,81,0.00,,,0.00,527,Wunderground v.1.15,2013-10-11 13:56:00,
2013-10-11 10:01:00,57.5,51.4,30.15,North,350,2.0,2.0,80,0.00,,,0.00,550,Wunderground v.1.15,2013-10-11 14:01:00,
2013-10-11 10:11:00,57.9,51.1,30.15,NW,306,2.0,5.0,78,0.00,,,0.00,431,Wunderground v.1.15,2013-10-11 14:11:00,
2013-10-11 10:16:00,57.8,51.0,30.15,NNW,327,3.0,5.0,78,0.00,,,0.00,557,Wunderground v.1.15,2013-10-11 14:16:00,
2013-10-11 10:21:00,58.5,52.0,30.15,East,93,2.0,2.0,79,0.00,,,0.00,529,Wunderground v.1.15,2013-10-11 14:21:00,
2013-10-11 10:31:00,59.8,51.5,30.15,WNW,296,2.0,5.0,74,0.00,,,0.00,599,Wunderground v.1.15,2013-10-11 14:31:00,
2013-10-11 10:36:00,60.3,50.9,30.15,West,281,3.0,5.0,71,0.00,,,0.00,631,Wunderground v.1.15,2013-10-11 14:36:00,
2013-10-11 10:41:00,61.5,52.8,30.15,ENE,64,2.0,2.0,73,0.00,,,0.00,582,Wunderground v.1.15,2013-10-11 14:41:00,
2013-10-11 10:47:00,61.5,51.6,30.15,NW,321,2.0,2.0,70,0.00,,,0.00,443,Wunderground v.1.15,2013-10-11 14:47:00,
2013-10-11 10:56:00,62.5,51.8,30.14,NW,314,3.0,5.0,68,0.00,,,0.00,552,Wunderground v.1.15,2013-10-11 14:56:00,
2013-10-11 11:02:00,62.7,52.4,30.14,WNW,296,2.0,2.0,69,0.00,,,0.00,410,Wunderground v.1.15,2013-10-11 15:02:00,
2013-10-11 11:10:00,63.0,50.2,30.14,NNW,327,0.0,3.0,63,0.00,,,0.00,510,Wunderground v.1.15,2013-10-11 15:10:00,
2013-10-11 11:15:00,62.8,50.9,30.14,WNW,300,1.0,3.0,65,0.00,,,0.00,338,Wunderground v.1.15,2013-10-11 15:15:00,
2013-10-11 11:20:00,62.9,50.1,30.14,NW,304,1.0,1.0,63,0.00,,,0.00,346,Wunderground v.1.15,2013-10-11 15:20:00,
2013-10-11 11:25:00,62.6,51.1,30.14,NW,313,2.0,2.0,66,0.00,,,0.00,339,Wunderground v.1.15,2013-10-11 15:25:00,
2013-10-11 11:30:00,62.7,50.8,30.14,NW,321,1.0,1.0,65,0.00,,,0.00,320,Wunderground v.1.15,2013-10-11 15:30:00,
2013-10-11 11:41:00,62.4,50.1,30.14,WNW,285,2.0,4.0,64,0.00,,,0.00,322,Wunderground v.1.15,2013-10-11 15:41:00,
2013-10-11 11:46:00,62.7,50.3,30.14,NNW,330,3.0,4.0,64,0.00,,,0.00,323,Wunderground v.1.15,2013-10-11 15:46:00,
2013-10-11 11:51:00,63.2,50.8,30.14,WNW,296,3.0,4.0,64,0.00,,,0.00,341,Wunderground v.1.15,2013-10-11 15:51:00,
2013-10-11 11:56:00,63.7,50.4,30.14,NNW,327,4.0,4.0,62,0.00,,,0.00,329,Wunderground v.1.15,2013-10-11 15:56:00,
2013-10-11 12:01:00,63.9,51.1,30.14,North,350,3.0,3.0,63,0.00,,,0.00,427,Wunderground v.1.15,2013-10-11 16:01:00,
2013-10-11 12:06:00,63.7,50.4,30.14,NNW,346,2.0,3.0,62,0.00,,,0.00,870,Wunderground v.1.15,2013-10-11 16:06:00,
2013-10-11 12:16:00,65.2,49.1,30.13,NE,49,1.0,2.0,56,0.00,,,0.00,809,Wunderground v.1.15,2013-10-11 16:16:00,
2013-10-11 12:21:00,65.7,46.5,30.13,NW,311,1.0,1.0,50,0.00,,,0.00,798,Wunderground v.1.15,2013-10-11 16:21:00,
2013-10-11 12:26:00,66.1,49.9,30.12,NNE,32,1.0,1.0,56,0.00,,,0.00,821,Wunderground v.1.15,2013-10-11 16:26:00,
2013-10-11 12:31:00,66.5,48.8,30.12,NW,314,1.0,1.0,53,0.00,,,0.00,786,Wunderground v.1.15,2013-10-11 16:31:00,
2013-10-11 12:41:00,67.4,46.5,30.12,East,92,2.0,2.0,47,0.00,,,0.00,635,Wunderground v.1.15,2013-10-11 16:41:00,
2013-10-11 12:46:00,67.1,46.2,30.12,NW,315,2.0,6.0,47,0.00,,,0.00,735,Wunderground v.1.15,2013-10-11 16:46:00,
2013-10-11 12:51:00,67.4,45.3,30.12,NNW,331,2.0,2.0,45,0.00,,,0.00,768,Wunderground v.1.15,2013-10-11 16:51:00,
2013-10-11 12:56:00,68.0,47.0,30.12,WSW,241,1.0,2.0,47,0.00,,,0.00,800,Wunderground v.1.15,2013-10-11 16:56:00,
2013-10-11 13:02:00,68.2,43.6,30.11,SSW,196,0.0,0.0,41,0.00,,,0.00,835,Wunderground v.1.15,2013-10-11 17:02:00,
2013-10-11 13:10:00,68.3,45.5,30.11,ENE,74,1.0,1.0,44,0.00,,,0.00,756,Wunderground v.1.15,2013-10-11 17:10:00,
2013-10-11 13:20:00,69.4,45.9,30.11,East,81,1.0,3.0,43,0.00,,,0.00,722,Wunderground v.1.15,2013-10-11 17:20:00,
2013-10-11 13:25:00,69.5,44.1,30.10,South,184,1.0,3.0,40,0.00,,,0.00,715,Wunderground v.1.15,2013-10-11 17:25:00,
2013-10-11 13:30:00,69.6,42.2,30.10,East,94,1.0,1.0,37,0.00,,,0.00,710,Wunderground v.1.15,2013-10-11 17:30:00,
2013-10-11 13:35:00,69.8,40.9,30.10,WSW,251,1.0,1.0,35,0.00,,,0.00,705,Wunderground v.1.15,2013-10-11 17:35:00,
2013-10-11 13:40:00,69.9,40.2,30.10,SW,214,1.0,1.0,34,0.00,,,0.00,670,Wunderground v.1.15,2013-10-11 17:40:00,
2013-10-11 13:46:00,70.1,41.2,30.10,WNW,290,0.0,3.0,35,0.00,,,0.00,696,Wunderground v.1.15,2013-10-11 17:46:00,
2013-10-11 13:51:00,70.1,39.6,30.10,NW,317,1.0,1.0,33,0.00,,,0.00,650,Wunderground v.1.15,2013-10-11 17:51:00,
2013-10-11 13:56:00,70.2,42.7,30.10,NW,318,1.0,1.0,37,0.00,,,0.00,582,Wunderground v.1.15,2013-10-11 17:56:00,
2013-10-11 14:01:00,70.3,42.1,30.10,South,186,1.0,3.0,36,0.00,,,0.00,686,Wunderground v.1.15,2013-10-11 18:01:00,
2013-10-11 14:11:00,70.6,40.9,30.09,South,173,0.0,0.0,34,0.00,,,0.00,722,Wunderground v.1.15,2013-10-11 18:11:00,
2013-10-11 14:16:00,71.0,41.2,30.09,East,87,0.0,0.0,34,0.00,,,0.00,705,Wunderground v.1.15,2013-10-11 18:16:00,
2013-10-11 14:21:00,71.3,42.2,30.09,East,90,0.0,0.0,35,0.00,,,0.00,700,Wunderground v.1.15,2013-10-11 18:21:00,
2013-10-11 14:26:00,71.5,40.9,30.09,NW,313,1.0,1.0,33,0.00,,,0.00,592,Wunderground v.1.15,2013-10-11 18:26:00,
2013-10-11 14:31:00,71.5,41.6,30.09,ESE,102,1.0,3.0,34,0.00,,,0.00,580,Wunderground v.1.15,2013-10-11 18:31:00,
2013-10-11 14:36:00,71.1,43.5,30.09,ESE,102,0.0,3.0,37,0.00,,,0.00,534,Wunderground v.1.15,2013-10-11 18:36:00,
2013-10-11 14:46:00,71.1,42.8,30.09,East,86,1.0,3.0,36,0.00,,,0.00,531,Wunderground v.1.15,2013-10-11 18:46:00,
2013-10-11 14:52:00,71.4,43.0,30.09,East,84,0.0,2.0,36,0.00,,,0.00,592,Wunderground v.1.15,2013-10-11 18:52:00,
2013-10-11 14:57:00,71.5,43.1,30.08,North,360,1.0,2.0,36,0.00,,,0.00,415,Wunderground v.1.15,2013-10-11 18:57:00,
2013-10-11 15:02:00,71.1,44.2,30.09,North,360,0.0,0.0,38,0.00,,,0.00,329,Wunderground v.1.15,2013-10-11 19:02:00,
2013-10-11 15:11:00,70.7,45.2,30.08,SE,124,0.0,1.0,40,0.00,,,0.00,299,Wunderground v.1.15,2013-10-11 19:11:00,
2013-10-11 15:20:00,70.6,45.7,30.08,ESE,116,0.0,0.0,41,0.00,,,0.00,260,Wunderground v.1.15,2013-10-11 19:20:00,
2013-10-11 15:25:00,70.7,45.8,30.08,SW,236,0.0,3.0,41,0.00,,,0.00,272,Wunderground v.1.15,2013-10-11 19:25:00,
2013-10-11 15:35:00,71.0,44.8,30.08,WNW,299,1.0,4.0,39,0.00,,,0.00,271,Wunderground v.1.15,2013-10-11 19:35:00,
2013-10-11 15:45:00,70.8,45.3,30.08,WNW,302,2.0,3.0,40,0.00,,,0.00,229,Wunderground v.1.15,2013-10-11 19:45:00,
2013-10-11 15:50:00,70.4,42.9,30.08,West,263,1.0,1.0,37,0.00,,,0.00,207,Wunderground v.1.15,2013-10-11 19:50:00,
2013-10-11 15:56:00,70.1,44.0,30.09,West,279,0.0,1.0,39,0.00,,,0.00,188,Wunderground v.1.15,2013-10-11 19:56:00,
2013-10-11 16:01:00,69.8,43.7,30.09,NE,50,0.0,0.0,39,0.00,,,0.00,139,Wunderground v.1.15,2013-10-11 20:01:00,
2013-10-11 16:10:00,68.8,42.8,30.09,ENE,76,0.0,0.0,39,0.00,,,0.00,100,Wunderground v.1.15,2013-10-11 20:10:00,
2013-10-11 16:15:00,68.6,43.3,30.09,WNW,283,0.0,0.0,40,0.00,,,0.00,104,Wunderground v.1.15,2013-10-11 20:15:00,
2013-10-11 16:20:00,68.3,44.3,30.09,NE,46,0.0,1.0,42,0.00,,,0.00,97,Wunderground v.1.15,2013-10-11 20:20:00,
2013-10-11 16:25:00,68.3,44.9,30.09,NE,47,0.0,1.0,43,0.00,,,0.00,125,Wunderground v.1.15,2013-10-11 20:25:00,
2013-10-11 16:35:00,68.2,44.8,30.09,East,79,0.0,2.0,43,0.00,,,0.00,116,Wunderground v.1.15,2013-10-11 20:35:00,
2013-10-11 16:40:00,68.2,45.4,30.09,East,79,0.0,0.0,44,0.00,,,0.00,90,Wunderground v.1.15,2013-10-11 20:40:00,
2013-10-11 16:50:00,67.5,46.6,30.09,NE,34,0.0,0.0,47,0.00,,,0.00,74,Wunderground v.1.15,2013-10-11 20:50:00,
2013-10-11 16:55:00,67.1,46.7,30.09,East,99,0.0,0.0,48,0.00,,,0.00,60,Wunderground v.1.15,2013-10-11 20:55:00,
2013-10-11 17:01:00,66.7,48.5,30.09,East,99,0.0,0.0,52,0.00,,,0.00,53,Wunderground v.1.15,2013-10-11 21:01:00,
2013-10-11 17:10:00,64.7,50.5,30.09,ENE,78,0.0,0.0,60,0.00,,,0.00,42,Wunderground v.1.15,2013-10-11 21:10:00,
2013-10-11 17:20:00,62.6,51.9,30.09,ENE,78,0.0,0.0,68,0.00,,,0.00,33,Wunderground v.1.15,2013-10-11 21:20:00,
2013-10-11 17:30:00,61.4,51.5,30.10,ENE,78,0.0,0.0,70,0.00,,,0.00,28,Wunderground v.1.15,2013-10-11 21:30:00,
2013-10-11 17:40:00,60.1,51.0,30.10,ENE,78,0.0,0.0,72,0.00,,,0.00,26,Wunderground v.1.15,2013-10-11 21:40:00,
2013-10-11 17:50:00,59.2,51.3,30.10,ENE,78,0.0,0.0,75,0.00,,,0.00,19,Wunderground v.1.15,2013-10-11 21:50:00,
2013-10-11 17:55:00,58.9,51.0,30.10,ENE,78,0.0,0.0,75,0.00,,,0.00,14,Wunderground v.1.15,2013-10-11 21:55:00,
2013-10-11 18:01:00,58.4,51.2,30.10,ENE,78,0.0,0.0,77,0.00,,,0.00,11,Wunderground v.1.15,2013-10-11 22:01:00,
2013-10-11 18:10:00,57.9,51.1,30.11,ENE,78,0.0,0.0,78,0.00,,,0.00,0,Wunderground v.1.15,2013-10-11 22:10:00,
2013-10-11 18:20:00,57.6,51.5,30.11,ENE,78,0.0,0.0,80,0.00,,,0.00,0,Wunderground v.1.15,2013-10-11 22:20:00,
2013-10-11 18:30:00,57.0,51.2,30.11,ENE,78,0.0,0.0,81,0.00,,,0.00,0,Wunderground v.1.15,2013-10-11 22:30:00,
2013-10-11 18:40:00,56.3,50.9,30.11,ENE,78,0.0,0.0,82,0.00,,,0.00,0,Wunderground v.1.15,2013-10-11 22:40:00,
2013-10-11 18:45:00,55.9,51.1,30.11,ENE,78,0.0,0.0,84,0.00,,,0.00,0,Wunderground v.1.15,2013-10-11 22:45:00,
2013-10-11 18:55:00,55.5,51.1,30.11,ENE,78,0.0,0.0,85,0.00,,,0.00,0,Wunderground v.1.15,2013-10-11 22:55:00,
2013-10-11 19:01:00,55.4,51.0,30.11,ENE,78,0.0,0.0,85,0.00,,,0.00,0,Wunderground v.1.15,2013-10-11 23:01:00,
2013-10-11 19:10:00,54.9,50.8,30.11,ENE,78,0.0,0.0,86,0.00,,,0.00,0,Wunderground v.1.15,2013-10-11 23:10:00,
2013-10-11 19:20:00,54.8,51.0,30.11,ENE,78,0.0,0.0,87,0.00,,,0.00,0,Wunderground v.1.15,2013-10-11 23:20:00,
2013-10-11 19:30:00,54.4,50.9,30.11,ENE,78,0.0,0.0,88,0.00,,,0.00,0,Wunderground v.1.15,2013-10-11 23:30:00,
2013-10-11 19:40:00,53.9,50.4,30.11,ENE,78,0.0,0.0,88,0.00,,,0.00,0,Wunderground v.1.15,2013-10-11 23:40:00,
2013-10-11 19:50:00,53.9,50.7,30.11,ENE,78,0.0,0.0,89,0.00,,,0.00,0,Wunderground v.1.15,2013-10-11 23:50:00,
2013-10-11 20:01:00,53.7,50.5,30.12,ENE,78,0.0,0.0,89,0.00,,,0.00,0,Wunderground v.1.15,2013-10-12 00:01:00,
2013-10-11 20:10:00,53.6,50.4,30.11,ENE,78,0.0,0.0,89,0.00,,,0.00,0,Wunderground v.1.15,2013-10-12 00:10:00,
2013-10-11 20:20:00,52.8,49.9,30.11,ENE,78,0.0,0.0,90,0.00,,,0.00,0,Wunderground v.1.15,2013-10-12 00:20:00,
2013-10-11 20:30:00,52.6,49.8,30.12,ENE,78,0.0,0.0,90,0.00,,,0.00,0,Wunderground v.1.15,2013-10-12 00:30:00,
2013-10-11 20:40:00,52.8,50.2,30.13,ENE,78,0.0,0.0,91,0.00,,,0.00,0,Wunderground v.1.15,2013-10-12 00:40:00,
2013-10-11 20:50:00,52.8,49.9,30.13,ENE,78,0.0,0.0,90,0.00,,,0.00,0,Wunderground v.1.15,2013-10-12 00:50:00,
2013-10-11 21:01:00,52.6,50.0,30.13,ENE,78,0.0,0.0,91,0.00,,,0.00,0,Wunderground v.1.15,2013-10-12 01:01:00,
2013-10-11 21:10:00,52.7,50.1,30.13,ENE,78,0.0,0.0,91,0.00,,,0.00,0,Wunderground v.1.15,2013-10-12 01:10:00,
2013-10-11 21:20:00,52.5,50.2,30.13,ENE,78,0.0,0.0,92,0.00,,,0.00,0,Wunderground v.1.15,2013-10-12 01:20:00,
2013-10-11 21:25:00,52.5,50.2,30.13,ENE,78,0.0,0.0,92,0.00,,,0.00,0,Wunderground v.1.15,2013-10-12 01:25:00,
2013-10-11 21:35:00,52.5,50.2,30.14,ENE,78,0.0,0.0,92,0.00,,,0.00,0,Wunderground v.1.15,2013-10-12 01:35:00,
2013-10-11 21:45:00,52.4,50.1,30.14,ENE,78,0.0,0.0,92,0.00,,,0.00,0,Wunderground v.1.15,2013-10-12 01:45:00,
2013-10-11 21:50:00,52.2,49.9,30.14,ENE,78,0.0,0.0,92,0.00,,,0.00,0,Wunderground v.1.15,2013-10-12 01:50:00,
2013-10-11 22:01:00,51.9,49.9,30.14,ENE,78,0.0,0.0,93,0.00,,,0.00,0,Wunderground v.1.15,2013-10-12 02:01:00,
2013-10-11 22:10:00,51.2,49.2,30.14,ENE,78,0.0,0.0,93,0.00,,,0.00,0,Wunderground v.1.15,2013-10-12 02:10:00,
2013-10-11 22:20:00,50.6,48.7,30.15,ENE,78,0.0,0.0,93,0.00,,,0.00,0,Wunderground v.1.15,2013-10-12 02:20:00,
2013-10-11 22:25:00,50.4,48.7,30.15,ENE,78,0.0,0.0,94,0.00,,,0.00,0,Wunderground v.1.15,2013-10-12 02:25:00,
2013-10-11 22:35:00,49.8,48.1,30.14,ENE,78,0.0,0.0,94,0.00,,,0.00,0,Wunderground v.1.15,2013-10-12 02:35:00,
2013-10-11 22:45:00,49.4,47.7,30.14,ENE,78,0.0,0.0,94,0.00,,,0.00,0,Wunderground v.1.15,2013-10-12 02:45:00,
2013-10-11 22:55:00,48.7,47.1,30.14,ENE,78,0.0,0.0,94,0.00,,,0.00,0,Wunderground v.1.15,2013-10-12 02:55:00,
2013-10-11 23:01:00,48.5,46.9,30.14,ENE,78,0.0,0.0,94,0.00,,,0.00,0,Wunderground v.1.15,2013-10-12 03:01:00,
2013-10-11 23:10:00,48.2,46.6,30.14,ENE,78,0.0,0.0,94,0.00,,,0.00,0,Wunderground v.1.15,2013-10-12 03:10:00,
2013-10-11 23:15:00,48.0,46.6,30.14,ENE,78,0.0,0.0,95,0.00,,,0.00,0,Wunderground v.1.15,2013-10-12 03:15:00,
2013-10-11 23:25:00,47.7,46.3,30.14,ENE,78,0.0,0.0,95,0.00,,,0.00,0,Wunderground v.1.15,2013-10-12 03:25:00,
2013-10-11 23:35:00,47.1,45.7,30.14,ENE,78,0.0,0.0,95,0.00,,,0.00,0,Wunderground v.1.15,2013-10-12 03:35:00,
2013-10-11 23:40:00,46.9,45.5,30.14,ENE,78,0.0,0.0,95,0.00,,,0.00,0,Wunderground v.1.15,2013-10-12 03:40:00,
2013-10-11 23:50:00,46.6,45.2,30.14,ENE,78,0.0,0.0,95,0.00,,,0.00,0,Wunderground v.1.15,2013-10-12 03:50:00,
2013-10-11 23:55:00,46.3,44.9,30.14,ENE,78,0.0,0.0,95,0.00,,,0.00,0,Wunderground v.1.15,2013-10-12 03:55:00,